createdAt,value
2019-03-29T00:04:47.024Z,5.25
2019-03-29T00:09:44.003Z,5.19
2019-03-29T00:14:42.040Z,5.15
2019-03-29T00:19:39.123Z,4.98
2019-03-29T00:24:37.137Z,5.06
2019-03-29T00:29:34.238Z,5.13
2019-03-29T00:34:31.336Z,5.15
2019-03-29T00:39:28.436Z,5.04
2019-03-29T00:44:26.243Z,5.00
2019-03-29T00:49:24.018Z,5.03
2019-03-29T00:54:21.120Z,5.04
2019-03-29T00:59:18.050Z,5.01
2019-03-29T01:04:15.641Z,5.06
2019-03-29T01:09:12.629Z,5.17
2019-03-29T01:14:09.786Z,5.19
2019-03-29T01:19:06.767Z,5.14
2019-03-29T01:24:04.736Z,5.26
2019-03-29T01:29:01.691Z,5.33
2019-03-29T01:33:59.233Z,5.32
2019-03-29T01:38:56.243Z,5.44
2019-03-29T01:43:55.130Z,5.23
2019-03-29T01:48:52.097Z,5.14
2019-03-29T01:53:49.167Z,5.18
2019-03-29T01:58:46.121Z,5.19
2019-03-29T02:03:43.271Z,5.17
2019-03-29T02:08:40.326Z,5.26
2019-03-29T02:13:37.323Z,5.34
2019-03-29T02:18:34.256Z,5.26
2019-03-29T02:23:31.261Z,5.37
2019-03-29T02:28:28.204Z,5.25
2019-03-29T02:33:25.293Z,5.33
2019-03-29T02:38:24.108Z,5.32
2019-03-29T02:43:21.225Z,5.46
2019-03-29T02:48:18.195Z,5.52
2019-03-29T02:53:15.326Z,5.43
2019-03-29T02:58:12.361Z,5.26
2019-03-29T03:03:09.422Z,5.37
2019-03-29T03:08:06.469Z,5.40
2019-03-29T03:13:03.585Z,5.42
2019-03-29T03:18:00.644Z,5.54
2019-03-29T03:22:57.750Z,5.54
2019-03-29T03:27:54.730Z,5.54
2019-03-29T03:32:51.848Z,5.56
2019-03-29T03:37:48.878Z,5.49
2019-03-29T03:42:46.330Z,5.48
2019-03-29T03:47:45.677Z,5.54
2019-03-29T03:52:42.814Z,5.33
2019-03-29T03:57:40.009Z,5.39
2019-03-29T04:02:37.103Z,5.56
2019-03-29T04:07:34.095Z,5.51
2019-03-29T04:12:31.134Z,5.63
2019-03-29T04:17:32.006Z,5.67
2019-03-29T04:22:30.440Z,5.70
2019-03-29T04:27:29.234Z,5.56
2019-03-29T04:32:26.411Z,5.69
2019-03-29T04:37:23.383Z,5.73
2019-03-29T04:42:20.513Z,5.80
2019-03-29T04:47:18.855Z,5.82
2019-03-29T04:52:18.687Z,5.88
2019-03-29T04:57:15.766Z,5.96
2019-03-29T05:02:12.961Z,5.92
2019-03-29T05:07:10.023Z,6.00
2019-03-29T05:12:07.130Z,6.16
2019-03-29T05:17:06.303Z,6.13
2019-03-29T05:22:03.426Z,6.11
2019-03-29T05:27:00.411Z,6.19
2019-03-29T05:31:57.420Z,6.23
2019-03-29T05:36:54.496Z,6.38
2019-03-29T05:41:51.607Z,6.50
2019-03-29T05:46:48.571Z,6.58
2019-03-29T05:51:46.627Z,6.60
2019-03-29T05:56:43.619Z,6.80
2019-03-29T06:01:40.974Z,6.96
2019-03-29T06:06:38.046Z,7.16
2019-03-29T06:11:35.793Z,7.25
2019-03-29T06:16:38.959Z,7.30
2019-03-29T06:21:32.998Z,7.45
2019-03-29T06:26:30.081Z,7.69
2019-03-29T06:31:29.169Z,7.54
2019-03-29T06:36:26.897Z,7.62
2019-03-29T06:41:24.086Z,7.50
2019-03-29T06:46:22.947Z,7.93
2019-03-29T06:51:20.033Z,7.98
2019-03-29T06:56:17.157Z,8.24
2019-03-29T07:01:14.401Z,8.19
2019-03-29T07:06:11.522Z,8.52
2019-03-29T07:11:17.347Z,8.81
2019-03-29T07:16:07.850Z,8.98
2019-03-29T07:21:04.956Z,8.99
2019-03-29T07:26:06.049Z,8.85
2019-03-29T07:31:04.768Z,9.17
2019-03-29T07:36:01.698Z,9.18
2019-03-29T07:41:02.140Z,9.25
2019-03-29T07:45:59.168Z,9.36
2019-03-29T07:50:57.587Z,9.50
2019-03-29T07:55:54.846Z,9.71
2019-03-29T08:00:54.778Z,9.84
2019-03-29T08:05:53.064Z,10.08
2019-03-29T08:10:53.482Z,10.20
2019-03-29T08:15:49.302Z,10.73
2019-03-29T08:20:46.407Z,11.20
2019-03-29T08:25:43.491Z,11.71
2019-03-29T08:30:40.663Z,11.95
2019-03-29T08:35:37.642Z,12.00
2019-03-29T08:40:36.147Z,12.95
2019-03-29T08:45:36.087Z,14.04
2019-03-29T08:50:33.269Z,14.70
2019-03-29T08:55:44.743Z,15.08
2019-03-29T09:00:30.554Z,15.46
2019-03-29T09:05:27.862Z,16.02
2019-03-29T09:10:26.074Z,16.33
2019-03-29T09:15:27.870Z,16.69
2019-03-29T09:20:26.772Z,17.11
2019-03-29T09:25:25.065Z,16.12
2019-03-29T09:30:22.172Z,16.11
2019-03-29T09:35:23.935Z,16.19
2019-03-29T09:40:21.892Z,15.93
2019-03-29T09:45:18.992Z,16.16
2019-03-29T09:50:18.734Z,16.16
2019-03-29T09:55:18.841Z,16.26
2019-03-29T10:00:21.010Z,16.76
2019-03-29T10:05:13.949Z,16.92
2019-03-29T10:10:12.179Z,16.39
2019-03-29T10:15:09.488Z,15.70
2019-03-29T10:20:07.410Z,15.56
2019-03-29T10:25:18.604Z,14.97
2019-03-29T10:30:09.361Z,14.89
2019-03-29T10:35:06.734Z,15.07
2019-03-29T10:40:09.031Z,14.61
2019-03-29T10:45:06.209Z,14.37
2019-03-29T10:50:05.264Z,14.36
2019-03-29T10:55:03.802Z,14.43
2019-03-29T11:00:00.946Z,14.38
2019-03-29T11:04:58.224Z,14.12
2019-03-29T11:09:55.388Z,13.81
2019-03-29T11:14:53.627Z,14.04
2019-03-29T11:19:52.066Z,14.44
2019-03-29T11:24:49.101Z,14.45
2019-03-29T11:29:46.113Z,14.29
2019-03-29T11:34:43.221Z,14.04
2019-03-29T11:39:40.768Z,14.26
2019-03-29T11:44:37.830Z,14.37
2019-03-29T11:49:34.965Z,14.25
2019-03-29T11:54:31.992Z,14.79
2019-03-29T11:59:29.242Z,15.62
2019-03-29T12:04:26.223Z,14.96
2019-03-29T12:09:23.284Z,14.78
2019-03-29T12:14:22.285Z,15.18
2019-03-29T12:19:20.234Z,15.24
2019-03-29T12:24:19.703Z,15.58
2019-03-29T12:29:16.855Z,15.85
2019-03-29T12:34:13.968Z,16.52
2019-03-29T12:39:13.135Z,16.71
2019-03-29T12:44:10.170Z,16.44
2019-03-29T12:49:09.089Z,16.92
2019-03-29T12:54:07.694Z,17.00
2019-03-29T12:59:07.211Z,17.12
2019-03-29T13:04:04.197Z,17.41
2019-03-29T13:09:01.464Z,17.11
2019-03-29T13:14:09.599Z,17.31
2019-03-29T13:18:57.485Z,17.33
2019-03-29T13:23:56.593Z,17.31
2019-03-29T13:28:53.722Z,17.47
2019-03-29T13:33:51.787Z,16.93
2019-03-29T13:38:51.085Z,16.63
2019-03-29T13:43:48.119Z,15.92
2019-03-29T13:48:45.210Z,16.36
2019-03-29T13:53:42.367Z,16.76
2019-03-29T13:58:40.439Z,16.73
2019-03-29T14:03:37.443Z,16.51
2019-03-29T14:08:34.587Z,16.37
2019-03-29T14:13:31.733Z,16.63
2019-03-29T14:18:31.737Z,16.71
2019-03-29T14:23:31.542Z,16.55
2019-03-29T14:28:28.743Z,16.36
2019-03-29T14:33:25.918Z,16.54
2019-03-29T14:38:25.074Z,16.59
2019-03-29T14:43:23.835Z,16.09
2019-03-29T14:48:23.680Z,16.18
2019-03-29T14:53:22.990Z,15.94
2019-03-29T14:58:20.697Z,15.79
2019-03-29T15:03:22.996Z,15.74
2019-03-29T15:08:27.370Z,15.49
2019-03-29T15:13:33.226Z,15.34
2019-03-29T15:18:46.186Z,15.21
2019-03-29T15:23:53.102Z,15.07
2019-03-29T15:29:00.978Z,14.87
2019-03-29T15:34:03.818Z,14.72
2019-03-29T15:39:03.917Z,14.68
2019-03-29T15:44:08.188Z,14.62
2019-03-29T15:49:08.501Z,14.32
2019-03-29T15:54:05.634Z,14.24
2019-03-29T15:59:10.455Z,14.01
2019-03-29T16:04:07.570Z,13.90
2019-03-29T16:09:05.531Z,13.87
2019-03-29T16:14:02.752Z,13.66
2019-03-29T16:19:01.510Z,13.56
2019-03-29T16:23:58.687Z,13.33
2019-03-29T16:28:56.731Z,13.34
2019-03-29T16:33:53.870Z,13.14
2019-03-29T16:38:51.141Z,13.09
2019-03-29T16:43:48.319Z,12.95
2019-03-29T16:48:46.049Z,12.60
2019-03-29T16:53:43.086Z,12.39
2019-03-29T16:58:42.041Z,12.20
2019-03-29T17:03:39.130Z,11.86
2019-03-29T17:08:36.412Z,11.69
2019-03-29T17:13:33.515Z,11.52
2019-03-29T17:18:32.191Z,11.29
2019-03-29T17:23:29.254Z,11.05
2019-03-29T17:28:26.359Z,10.83
2019-03-29T17:33:23.898Z,10.64
2019-03-29T17:38:21.124Z,10.41
2019-03-29T17:43:18.160Z,10.15
2019-03-29T17:48:15.369Z,9.97
2019-03-29T17:53:12.460Z,9.82
2019-03-29T17:58:10.032Z,9.74
2019-03-29T18:03:07.067Z,9.57
2019-03-29T18:08:04.214Z,9.27
2019-03-29T18:13:01.257Z,9.23
2019-03-29T18:17:58.408Z,9.07
2019-03-29T18:22:55.533Z,8.91
2019-03-29T18:27:52.671Z,8.89
2019-03-29T18:32:49.724Z,8.67
2019-03-29T18:37:47.446Z,8.56
2019-03-29T18:42:44.662Z,8.36
2019-03-29T18:47:41.924Z,8.38
2019-03-29T18:52:42.821Z,8.15
2019-03-29T18:57:40.076Z,7.99
2019-03-29T19:02:37.746Z,7.76
2019-03-29T19:07:36.091Z,7.69
2019-03-29T19:12:33.482Z,7.50
2019-03-29T19:17:30.691Z,7.25
2019-03-29T19:22:27.913Z,7.31
2019-03-29T19:27:25.186Z,7.18
2019-03-29T19:32:22.858Z,7.13
2019-03-29T19:37:20.002Z,7.02
2019-03-29T19:42:17.859Z,6.84
2019-03-29T19:47:14.939Z,6.61
2019-03-29T19:52:12.002Z,6.63
2019-03-29T19:57:09.626Z,6.49
2019-03-29T20:02:06.666Z,6.55
2019-03-29T20:07:04.469Z,6.39
2019-03-29T20:12:01.694Z,6.39
2019-03-29T20:16:59.420Z,6.36
2019-03-29T20:21:56.659Z,6.45
2019-03-29T20:26:53.737Z,6.50
2019-03-29T20:31:50.889Z,6.16
2019-03-29T20:36:48.376Z,6.19
2019-03-29T20:41:45.714Z,6.06
2019-03-29T20:46:43.701Z,6.06
2019-03-29T20:51:40.741Z,6.02
2019-03-29T20:56:38.056Z,6.20
2019-03-29T21:01:35.479Z,6.24
2019-03-29T21:06:32.762Z,6.35
2019-03-29T21:11:29.831Z,6.49
2019-03-29T21:16:33.552Z,6.45
2019-03-29T21:21:30.688Z,6.59
2019-03-29T21:26:28.227Z,6.42
2019-03-29T21:31:25.444Z,6.47
2019-03-29T21:36:22.564Z,6.11
2019-03-29T21:41:19.629Z,6.11
2019-03-29T21:46:16.744Z,6.08
2019-03-29T21:51:14.926Z,6.01
2019-03-29T21:56:12.091Z,5.99
2019-03-29T22:01:09.152Z,5.93
2019-03-29T22:06:06.389Z,5.82
2019-03-29T22:11:03.448Z,5.80
2019-03-29T22:16:00.525Z,5.54
2019-03-29T22:20:57.511Z,5.52
2019-03-29T22:25:57.201Z,5.45
2019-03-29T22:30:54.358Z,5.48
2019-03-29T22:35:51.470Z,5.47
2019-03-29T22:40:48.510Z,5.39
2019-03-29T22:45:46.512Z,5.32
2019-03-29T22:50:43.482Z,5.32
2019-03-29T22:55:41.414Z,5.05
2019-03-29T23:00:43.640Z,5.13
2019-03-29T23:05:40.761Z,5.18
2019-03-29T23:10:37.816Z,5.12
2019-03-29T23:15:34.899Z,5.19
2019-03-29T23:20:34.758Z,5.02
2019-03-29T23:25:31.900Z,4.85
2019-03-29T23:30:30.402Z,4.66
2019-03-29T23:35:27.445Z,4.55
2019-03-29T23:40:26.430Z,4.44
2019-03-29T23:45:23.487Z,4.35
2019-03-29T23:50:20.627Z,4.30
2019-03-29T23:55:17.671Z,4.16
